Time;durP1;ratioP1;P1;durP2;ratioP2;P2;SDS_P1;SDS_P2;PMS_P1;PMS_P2;Temp;Humidity;BMP_temperature;BMP_pressure;BME280_temperature;BME280_humidity;BME280_pressure;Samples;Min_cycle;Max_cycle;Signal;HPM_P1;HPM_P2
2023/01/18 00:01:07;;;;;;;21.60;13.48;;;4.90;87.00;;;;;;5072976;28;20119;-13
2023/01/18 00:03:35;;;;;;;20.83;13.30;;;4.80;87.00;;;;;;5073650;28;20028;-13
2023/01/18 00:06:02;;;;;;;17.45;10.50;;;4.80;87.10;;;;;;5073217;28;20103;-14
2023/01/18 00:08:30;;;;;;;19.63;12.07;;;4.90;87.20;;;;;;5073010;28;20085;-13
2023/01/18 00:11:11;;;;;;;20.63;12.95;;;4.90;87.20;;;;;;5072935;28;20028;-13
2023/01/18 00:13:37;;;;;;;17.08;10.50;;;4.90;87.20;;;;;;5073285;28;20032;-13
2023/01/18 00:16:05;;;;;;;21.55;12.52;;;4.90;87.20;;;;;;5072987;28;20029;-13
2023/01/18 00:18:31;;;;;;;22.08;12.73;;;5.00;87.20;;;;;;5073070;28;20567;-13
2023/01/18 00:21:07;;;;;;;19.38;12.80;;;5.00;87.20;;;;;;5071459;28;20388;-13
2023/01/18 00:23:33;;;;;;;20.42;12.38;;;5.00;87.20;;;;;;5071816;28;20028;-12
2023/01/18 00:26:05;;;;;;;18.50;12.50;;;5.00;87.20;;;;;;5071292;28;20039;-14
2023/01/18 00:28:31;;;;;;;19.88;11.80;;;5.10;87.10;;;;;;5072593;28;20119;-13
2023/01/18 00:30:58;;;;;;;17.83;11.82;;;5.10;87.10;;;;;;5072647;28;20020;-13
2023/01/18 00:33:24;;;;;;;19.08;12.45;;;5.10;87.10;;;;;;5072713;28;20028;-12
2023/01/18 00:36:01;;;;;;;20.75;12.13;;;5.10;87.10;;;;;;5073175;28;20034;-13
2023/01/18 00:38:28;;;;;;;18.17;11.52;;;5.00;87.10;;;;;;5072791;28;20021;-13
2023/01/18 00:40:54;;;;;;;20.52;11.70;;;5.00;87.10;;;;;;5072521;28;20042;-13
2023/01/18 00:43:38;;;;;;;18.05;11.38;;;5.00;87.10;;;;;;5072750;28;20025;-13
2023/01/18 00:46:12;;;;;;;14.13;9.60;;;5.00;87.10;;;;;;5072638;28;20024;-13
2023/01/18 00:48:39;;;;;;;18.45;11.73;;;5.00;87.10;;;;;;5072915;28;20028;-12
2023/01/18 00:51:08;;;;;;;16.15;10.07;;;5.00;87.10;;;;;;5072408;28;20064;-12
2023/01/18 00:53:34;;;;;;;17.90;11.32;;;5.00;87.10;;;;;;5072386;28;20499;-13
2023/01/18 00:56:00;;;;;;;13.82;9.18;;;5.00;87.20;;;;;;5072576;28;20029;-12
2023/01/18 00:58:27;;;;;;;13.27;7.85;;;5.00;87.20;;;;;;5071250;28;20388;-13
2023/01/18 01:00:53;;;;;;;10.95;7.35;;;5.00;87.20;;;;;;5072388;28;20027;-13
2023/01/18 01:03:20;;;;;;;11.30;7.53;;;5.00;87.20;;;;;;5072718;28;20056;-12
2023/01/18 01:08:30;;;;;;;19.95;11.60;;;5.00;87.20;;;;;;5072758;28;20112;-14
2023/01/18 01:11:09;;;;;;;17.83;10.60;;;5.00;87.20;;;;;;5071771;28;20119;-12
2023/01/18 01:27:17;;;;;;;20.92;11.82;;;5.20;86.30;;;;;;5072513;28;20508;-13
2023/01/18 01:29:42;;;;;;;20.63;12.23;;;5.20;86.30;;;;;;5072100;28;20029;-12
2023/01/18 01:32:08;;;;;;;17.13;11.25;;;5.20;86.20;;;;;;5071994;28;20028;-12
2023/01/18 01:34:34;;;;;;;17.77;11.05;;;5.20;86.20;;;;;;5073363;28;20020;-12
2023/01/18 01:37:01;;;;;;;17.70;11.27;;;5.20;86.10;;;;;;5076133;28;20032;-13
2023/01/18 01:39:27;;;;;;;16.60;10.55;;;5.20;86.10;;;;;;5075790;28;20038;-13
2023/01/18 01:41:53;;;;;;;18.08;11.43;;;5.20;85.90;;;;;;5075957;28;20044;-14
2023/01/18 01:44:19;;;;;;;18.25;10.75;;;5.20;85.90;;;;;;5076139;28;20025;-13
2023/01/18 01:46:47;;;;;;;17.48;10.43;;;5.20;85.90;;;;;;5075804;28;20020;-13
2023/01/18 01:49:20;;;;;;;21.10;11.23;;;5.20;86.00;;;;;;5075588;28;20119;-13
2023/01/18 01:52:00;;;;;;;22.03;11.80;;;5.10;86.00;;;;;;5076016;28;20097;-13
2023/01/18 01:54:39;;;;;;;18.45;10.48;;;5.10;86.10;;;;;;5075629;28;20250;-12
2023/01/18 01:57:10;;;;;;;19.70;10.70;;;5.10;86.10;;;;;;5075159;28;20506;-12
2023/01/18 01:59:41;;;;;;;19.88;11.18;;;5.10;86.10;;;;;;5075513;28;20028;-13
2023/01/18 02:02:09;;;;;;;20.35;12.07;;;5.20;86.10;;;;;;5075841;28;20025;-13
2023/01/18 02:04:35;;;;;;;22.52;12.77;;;5.20;85.90;;;;;;5075657;28;20028;-13
2023/01/18 02:07:01;;;;;;;22.27;12.68;;;5.20;85.60;;;;;;5075173;28;20531;-13
2023/01/18 02:09:27;;;;;;;23.58;13.15;;;5.20;85.50;;;;;;5076114;28;20028;-14
2023/01/18 02:11:54;;;;;;;23.20;13.93;;;5.10;85.50;;;;;;5075526;28;20085;-13
2023/01/18 02:14:24;;;;;;;22.15;13.07;;;5.10;85.60;;;;;;5075494;28;20089;-13
2023/01/18 02:17:05;;;;;;;24.02;13.02;;;5.10;85.70;;;;;;5075139;28;20130;-13
2023/01/18 02:19:59;;;;;;;24.73;14.52;;;5.20;85.50;;;;;;5075255;28;20029;-13
2023/01/18 02:22:25;;;;;;;22.52;14.05;;;5.20;85.20;;;;;;5065142;28;20063;-12
2023/01/18 02:25:28;;;;;;;23.08;14.18;;;5.10;85.20;;;;;;5075053;28;20441;-13
2023/01/18 02:28:08;;;;;;;25.13;14.48;;;5.10;85.20;;;;;;5074752;28;20048;-13
2023/01/18 02:30:50;;;;;;;23.58;13.75;;;5.00;85.30;;;;;;5075036;28;20094;-13
2023/01/18 02:33:31;;;;;;;22.60;13.38;;;4.90;85.40;;;;;;5075063;28;20033;-14
2023/01/18 02:36:01;;;;;;;22.75;13.52;;;4.80;85.40;;;;;;5075116;28;20029;-12
2023/01/18 02:38:45;;;;;;;26.48;14.85;;;4.70;85.40;;;;;;5075209;28;20024;-12
2023/01/18 02:47:28;;;;;;;19.25;11.65;;;4.30;85.70;;;;;;5074147;28;20449;-13
2023/01/18 02:49:57;;;;;;;21.88;13.32;;;4.20;86.00;;;;;;5075037;28;20055;-13
2023/01/18 02:52:46;;;;;;;23.67;12.57;;;4.10;86.20;;;;;;5074633;28;20431;-12
2023/01/18 02:55:57;;;;;;;21.40;11.60;;;4.10;86.30;;;;;;5075551;28;20070;-12
2023/01/18 02:58:33;;;;;;;24.33;12.70;;;3.90;86.30;;;;;;5074652;28;20029;-13
2023/01/18 03:01:21;;;;;;;21.90;12.57;;;3.90;86.30;;;;;;5074607;28;20425;-12
2023/01/18 03:03:50;;;;;;;22.95;12.30;;;3.80;86.30;;;;;;5074434;28;20025;-12
2023/01/18 03:06:17;;;;;;;17.85;10.05;;;3.70;86.40;;;;;;5074364;28;20032;-13
2023/01/18 03:08:54;;;;;;;22.35;12.73;;;3.70;86.50;;;;;;5074289;28;20101;-13
2023/01/18 03:11:22;;;;;;;20.90;12.70;;;3.60;86.60;;;;;;5074175;28;20028;-13
2023/01/18 03:14:16;;;;;;;19.25;10.57;;;3.50;86.60;;;;;;5074686;28;20060;-14
2023/01/18 03:16:57;;;;;;;20.90;11.68;;;3.50;86.70;;;;;;5074521;28;20028;-14
2023/01/18 03:23:36;;;;;;;19.98;11.77;;;3.40;86.90;;;;;;5074364;28;20031;-13
2023/01/18 03:25:08;;;;;;;22.70;12.57;;;3.40;87.00;;;;;;5073717;28;20178;-12
2023/01/18 03:35:54;;;;;;;19.50;11.38;;;3.20;87.00;;;;;;5074138;28;20071;-13
2023/01/18 03:38:20;;;;;;;23.02;13.05;;;3.20;87.10;;;;;;5073739;28;20154;-13
2023/01/18 03:40:46;;;;;;;21.35;11.05;;;3.20;87.10;;;;;;5072094;28;20024;-13
2023/01/18 03:43:19;;;;;;;26.05;14.00;;;3.10;87.20;;;;;;5073627;28;20056;-12
2023/01/18 03:45:48;;;;;;;29.40;15.27;;;3.30;87.20;;;;;;5074203;28;20024;-12
2023/01/18 03:48:14;;;;;;;26.95;14.93;;;3.30;87.10;;;;;;5073526;28;20032;-12
2023/01/18 03:50:51;;;;;;;29.60;15.63;;;3.30;87.00;;;;;;5073874;28;20349;-12
2023/01/18 03:53:46;;;;;;;29.65;15.52;;;3.40;86.90;;;;;;5073634;28;20052;-14
2023/01/18 03:56:28;;;;;;;26.73;14.75;;;3.50;86.70;;;;;;5073646;28;20043;-13
2023/01/18 03:58:58;;;;;;;25.88;14.57;;;3.50;86.70;;;;;;5073049;28;20029;-13
2023/01/18 04:01:25;;;;;;;28.17;14.90;;;3.50;86.70;;;;;;5073321;28;20028;-13
2023/01/18 04:03:52;;;;;;;33.60;16.70;;;3.50;86.60;;;;;;5071829;28;20085;-13
2023/01/18 04:06:21;;;;;;;31.10;16.05;;;3.60;86.80;;;;;;5073214;28;20039;-13
2023/01/18 04:08:49;;;;;;;29.35;15.15;;;3.60;86.80;;;;;;5073495;28;20024;-13
2023/01/18 04:11:15;;;;;;;30.40;14.80;;;3.60;86.80;;;;;;5072949;28;20051;-13
2023/01/18 04:13:41;;;;;;;32.72;15.85;;;3.60;86.80;;;;;;5073068;28;20404;-13
2023/01/18 04:16:07;;;;;;;28.88;15.55;;;3.70;86.80;;;;;;5073015;28;20508;-13
2023/01/18 04:18:33;;;;;;;32.25;15.52;;;3.70;86.80;;;;;;5072898;28;20029;-13
2023/01/18 04:20:58;;;;;;;30.08;15.15;;;3.80;86.80;;;;;;5073026;28;20024;-13
2023/01/18 04:23:24;;;;;;;30.10;14.30;;;3.90;86.90;;;;;;5071620;28;20480;-13
2023/01/18 04:25:50;;;;;;;30.40;15.40;;;4.00;86.80;;;;;;5072799;28;20047;-13
2023/01/18 04:28:24;;;;;;;27.40;14.15;;;4.10;86.70;;;;;;5072658;28;20048;-13
2023/01/18 04:30:56;;;;;;;34.85;16.50;;;4.10;86.60;;;;;;5072577;28;20039;-13
2023/01/18 04:33:25;;;;;;;30.35;15.30;;;4.00;86.70;;;;;;5072699;28;20039;-12
2023/01/18 04:35:53;;;;;;;29.02;14.80;;;4.00;86.70;;;;;;5073128;28;20476;-12
2023/01/18 04:38:19;;;;;;;30.95;15.00;;;4.00;86.80;;;;;;5072641;28;20037;-12
2023/01/18 04:40:45;;;;;;;29.58;14.70;;;3.90;86.80;;;;;;5072431;28;20488;-12
2023/01/18 04:43:11;;;;;;;26.15;13.77;;;3.90;86.90;;;;;;5072660;28;20035;-11
2023/01/18 04:45:37;;;;;;;32.58;16.00;;;3.90;87.00;;;;;;5072824;28;20056;-13
2023/01/18 04:48:03;;;;;;;29.52;15.13;;;3.90;87.00;;;;;;5072837;28;20036;-13
2023/01/18 04:50:28;;;;;;;28.25;14.98;;;3.90;87.10;;;;;;5072757;28;20032;-13
2023/01/18 04:52:54;;;;;;;31.98;16.40;;;3.90;87.10;;;;;;5072364;28;20036;-13
2023/01/18 04:55:20;;;;;;;29.77;15.50;;;3.90;87.10;;;;;;5072947;28;20025;-13
2023/01/18 04:57:52;;;;;;;31.63;16.02;;;3.90;87.10;;;;;;5072371;28;20082;-13
2023/01/18 05:00:18;;;;;;;30.90;15.05;;;3.90;87.10;;;;;;5072529;28;20032;-13
2023/01/18 05:02:44;;;;;;;30.55;15.00;;;3.80;87.10;;;;;;5072696;28;20033;-13
2023/01/18 05:05:10;;;;;;;31.38;15.32;;;3.70;87.20;;;;;;5072640;28;20093;-13
2023/01/18 05:07:35;;;;;;;29.77;15.88;;;3.70;87.20;;;;;;5072382;28;20174;-13
2023/01/18 05:10:02;;;;;;;24.58;13.25;;;3.70;87.30;;;;;;5074404;28;20086;-13
2023/01/18 05:12:29;;;;;;;27.30;13.57;;;3.70;87.40;;;;;;5076508;28;20063;-13
2023/01/18 05:14:55;;;;;;;30.65;15.10;;;3.70;87.50;;;;;;5076326;28;20032;-13
2023/01/18 05:17:26;;;;;;;29.80;15.32;;;3.70;87.50;;;;;;5076172;28;20370;-13
2023/01/18 05:19:53;;;;;;;33.60;16.42;;;3.70;87.60;;;;;;5076657;28;20028;-13
2023/01/18 05:22:20;;;;;;;28.10;15.15;;;3.70;87.60;;;;;;5076642;28;20020;-13
2023/01/18 05:24:47;;;;;;;27.98;15.57;;;3.70;87.70;;;;;;5076017;28;20123;-13
2023/01/18 05:27:13;;;;;;;31.45;15.52;;;3.70;87.70;;;;;;5075902;28;20755;-14
2023/01/18 05:29:39;;;;;;;29.10;13.68;;;3.60;87.70;;;;;;5076382;28;20059;-13
2023/01/18 05:32:05;;;;;;;28.52;14.73;;;3.60;87.70;;;;;;5076213;28;20473;-14
2023/01/18 05:34:31;;;;;;;26.05;13.57;;;3.70;87.70;;;;;;5076136;28;20065;-13
2023/01/18 05:36:57;;;;;;;30.10;15.65;;;3.70;87.80;;;;;;5076038;28;20050;-12
2023/01/18 05:39:23;;;;;;;29.13;15.70;;;3.70;87.80;;;;;;5076009;28;20502;-13
2023/01/18 05:41:49;;;;;;;29.33;13.95;;;3.80;87.80;;;;;;5075915;28;20414;-13
2023/01/18 05:44:15;;;;;;;29.92;15.40;;;3.70;87.80;;;;;;5074660;28;20024;-13
2023/01/18 05:46:41;;;;;;;35.85;17.88;;;3.70;87.80;;;;;;5075781;28;20035;-13
2023/01/18 05:49:07;;;;;;;28.83;14.95;;;3.80;87.80;;;;;;5075572;28;20025;-13
2023/01/18 05:51:33;;;;;;;28.45;14.77;;;3.80;87.80;;;;;;5075483;28;20040;-13
2023/01/18 05:53:59;;;;;;;34.97;16.83;;;3.90;87.80;;;;;;5075866;28;20480;-13
2023/01/18 05:56:25;;;;;;;34.30;17.38;;;3.90;87.80;;;;;;5075570;28;20078;-13
2023/01/18 05:58:51;;;;;;;32.25;16.60;;;3.80;87.80;;;;;;5074524;28;20028;-12
2023/01/18 06:01:16;;;;;;;30.70;14.57;;;3.80;87.80;;;;;;5074919;28;20064;-13
2023/01/18 06:03:42;;;;;;;26.17;14.00;;;3.90;87.80;;;;;;5075396;28;20060;-13
2023/01/18 06:06:08;;;;;;;35.25;17.42;;;3.90;87.80;;;;;;5076139;28;20035;-13
2023/01/18 06:08:34;;;;;;;33.40;17.10;;;3.90;87.80;;;;;;5075421;28;20094;-13
2023/01/18 06:11:00;;;;;;;33.28;17.02;;;3.90;87.80;;;;;;5075298;28;20126;-12
2023/01/18 06:13:29;;;;;;;31.42;16.08;;;3.90;87.70;;;;;;5075524;28;20029;-13
2023/01/18 06:15:57;;;;;;;29.25;13.65;;;3.90;87.70;;;;;;5075247;28;20020;-13
2023/01/18 06:18:24;;;;;;;34.75;16.60;;;3.80;87.80;;;;;;5075186;28;20032;-13
2023/01/18 06:20:53;;;;;;;29.02;14.27;;;3.90;87.80;;;;;;5075028;28;20473;-12
2023/01/18 06:23:19;;;;;;;32.63;16.52;;;3.80;87.80;;;;;;5075182;28;20481;-13
2023/01/18 06:25:45;;;;;;;31.83;15.27;;;3.90;87.90;;;;;;5075007;28;20024;-13
2023/01/18 06:28:11;;;;;;;29.17;15.13;;;3.90;87.90;;;;;;5074911;28;20048;-13
2023/01/18 06:30:37;;;;;;;28.92;15.30;;;3.90;87.90;;;;;;5075287;28;20064;-12
2023/01/18 06:33:05;;;;;;;33.33;15.68;;;3.90;87.90;;;;;;5075012;28;20028;-13
2023/01/18 06:35:35;;;;;;;32.42;15.73;;;3.90;87.90;;;;;;5074929;28;20074;-13
2023/01/18 06:38:02;;;;;;;34.13;15.95;;;3.90;87.90;;;;;;5075244;28;20035;-13
2023/01/18 06:40:29;;;;;;;34.60;15.82;;;3.90;87.90;;;;;;5074941;28;20035;-12
2023/01/18 06:42:54;;;;;;;33.45;17.70;;;3.90;87.90;;;;;;5074572;28;20036;-12
2023/01/18 06:45:21;;;;;;;32.85;16.88;;;3.90;87.80;;;;;;5074833;28;20025;-13
2023/01/18 06:47:50;;;;;;;35.28;18.70;;;3.90;87.80;;;;;;5074633;28;20093;-13
2023/01/18 06:50:16;;;;;;;35.47;17.67;;;3.90;87.80;;;;;;5074606;28;20100;-12
2023/01/18 06:52:43;;;;;;;38.00;17.85;;;3.90;87.80;;;;;;5074957;28;20115;-12
2023/01/18 06:55:13;;;;;;;34.38;16.70;;;3.90;87.90;;;;;;5074423;28;20082;-13
2023/01/18 06:57:38;;;;;;;33.90;17.25;;;3.90;87.80;;;;;;5074588;28;20024;-12
2023/01/18 07:00:05;;;;;;;30.75;16.25;;;3.90;87.80;;;;;;5073241;28;20097;-13
2023/01/18 07:02:31;;;;;;;29.60;14.98;;;3.80;87.80;;;;;;5074694;28;20028;-13
2023/01/18 07:04:57;;;;;;;28.70;14.57;;;3.80;87.90;;;;;;5074536;28;20039;-12
2023/01/18 07:07:23;;;;;;;41.47;17.73;;;3.80;88.00;;;;;;5074359;28;20408;-12
2023/01/18 07:09:49;;;;;;;38.20;18.95;;;3.90;88.00;;;;;;5072940;28;20017;-13
2023/01/18 07:12:15;;;;;;;42.05;19.48;;;3.80;88.00;;;;;;5074436;28;20420;-13
2023/01/18 07:14:41;;;;;;;42.92;19.50;;;3.90;88.00;;;;;;5074718;28;20020;-13
2023/01/18 07:17:07;;;;;;;38.55;20.02;;;3.80;88.00;;;;;;5073969;28;20174;-13
2023/01/18 07:19:33;;;;;;;40.60;20.08;;;3.80;88.00;;;;;;5074401;28;20181;-13
2023/01/18 07:22:00;;;;;;;34.60;16.90;;;3.80;88.00;;;;;;5074068;28;20074;-13
2023/01/18 07:24:26;;;;;;;52.92;24.50;;;3.80;88.10;;;;;;5073090;28;20042;-13
2023/01/18 07:26:53;;;;;;;47.90;22.70;;;3.80;88.10;;;;;;5073992;28;20024;-13
2023/01/18 07:29:20;;;;;;;46.42;22.05;;;3.90;88.10;;;;;;5073666;28;20048;-12
2023/01/18 07:31:46;;;;;;;44.25;19.88;;;3.90;88.10;;;;;;5073723;28;20028;-14
2023/01/18 07:34:12;;;;;;;36.03;18.33;;;3.90;88.10;;;;;;5074199;28;20025;-13
2023/01/18 07:36:40;;;;;;;40.75;19.73;;;3.90;88.10;;;;;;5073862;28;20021;-13
2023/01/18 07:39:07;;;;;;;41.90;19.90;;;3.90;88.10;;;;;;5073497;28;20063;-13
2023/01/18 07:41:33;;;;;;;36.85;17.88;;;3.90;88.10;;;;;;5073933;28;20332;-12
2023/01/18 07:44:00;;;;;;;41.63;20.00;;;3.90;88.20;;;;;;5073774;28;20079;-14
2023/01/18 07:46:26;;;;;;;42.25;20.65;;;3.90;88.10;;;;;;5073649;28;20364;-13
2023/01/18 07:48:52;;;;;;;45.78;21.90;;;4.00;88.20;;;;;;5073644;28;20037;-13
2023/01/18 07:51:20;;;;;;;41.58;20.17;;;4.00;88.20;;;;;;5073694;28;20041;-14
2023/01/18 07:53:46;;;;;;;41.42;19.35;;;4.00;88.10;;;;;;5073561;28;20060;-13
2023/01/18 07:56:15;;;;;;;39.95;19.08;;;4.00;88.20;;;;;;5073677;28;20036;-13
2023/01/18 07:58:41;;;;;;;37.97;18.75;;;4.00;88.20;;;;;;5073319;28;20036;-13
2023/01/18 08:01:09;;;;;;;37.28;19.63;;;4.10;88.20;;;;;;5073127;28;20044;-14
2023/01/18 08:03:36;;;;;;;57.58;27.75;;;4.10;88.20;;;;;;5073882;28;20111;-13
2023/01/18 08:06:04;;;;;;;39.97;18.65;;;4.10;88.10;;;;;;5073417;28;20107;-14
2023/01/18 08:08:30;;;;;;;38.20;17.80;;;4.20;88.10;;;;;;5073297;28;20051;-11
2023/01/18 08:10:58;;;;;;;41.30;19.52;;;4.20;88.10;;;;;;5071404;28;20040;-14
2023/01/18 08:13:25;;;;;;;43.03;20.17;;;4.20;88.10;;;;;;5073107;28;20032;-12
2023/01/18 08:15:52;;;;;;;40.45;19.35;;;4.30;88.10;;;;;;5073273;28;20033;-15
2023/01/18 08:18:18;;;;;;;30.08;16.23;;;4.30;88.00;;;;;;5071697;28;20025;-11
2023/01/18 08:20:45;;;;;;;36.22;16.65;;;4.30;88.00;;;;;;5072941;28;20479;-11
2023/01/18 08:23:11;;;;;;;33.58;14.82;;;4.30;88.00;;;;;;5072839;28;20020;-12
2023/01/18 08:25:38;;;;;;;32.70;15.65;;;4.40;87.90;;;;;;5072086;28;20052;-12
2023/01/18 08:28:04;;;;;;;34.28;16.40;;;4.40;88.00;;;;;;5072714;28;20059;-11
2023/01/18 08:30:33;;;;;;;31.45;15.70;;;4.50;88.00;;;;;;5072716;28;20024;-11
2023/01/18 08:33:00;;;;;;;36.53;17.30;;;4.60;87.90;;;;;;5072644;28;20044;-11
2023/01/18 08:35:32;;;;;;;33.33;17.08;;;4.60;87.90;;;;;;5072696;28;20103;-12
2023/01/18 08:38:00;;;;;;;34.90;17.13;;;4.60;87.80;;;;;;5072895;28;20067;-11
2023/01/18 08:40:27;;;;;;;38.97;18.42;;;4.70;87.70;;;;;;5072708;28;20477;-11
2023/01/18 08:42:58;;;;;;;33.03;16.70;;;4.80;87.30;;;;;;5072752;28;20055;-12
2023/01/18 08:45:24;;;;;;;33.45;15.52;;;4.90;87.20;;;;;;5071955;28;20071;-11
2023/01/18 08:48:01;;;;;;;35.78;17.90;;;4.90;87.20;;;;;;5072814;28;20050;-12
2023/01/18 08:50:29;;;;;;;37.92;16.90;;;5.00;86.50;;;;;;5072629;28;20048;-14
2023/01/18 08:52:58;;;;;;;35.08;17.27;;;5.00;86.50;;;;;;5072559;28;20033;-13
2023/01/18 08:55:25;;;;;;;34.53;16.92;;;5.00;86.50;;;;;;5073012;28;20033;-12
2023/01/18 08:57:53;;;;;;;35.15;17.88;;;5.10;86.40;;;;;;5072861;28;20017;-13
2023/01/18 09:00:22;;;;;;;32.85;17.38;;;5.10;86.00;;;;;;5072723;28;20020;-13
2023/01/18 09:02:48;;;;;;;34.13;16.77;;;5.20;85.70;;;;;;5072154;28;20028;-12
2023/01/18 09:05:14;;;;;;;36.40;16.85;;;5.20;85.50;;;;;;5072420;28;20031;-13
2023/01/18 09:07:40;;;;;;;34.58;16.30;;;5.20;85.50;;;;;;5072812;28;20021;-12
2023/01/18 09:10:07;;;;;;;37.20;18.85;;;5.20;85.60;;;;;;5072565;28;20150;-13
2023/01/18 09:12:34;;;;;;;33.30;16.67;;;5.20;85.80;;;;;;5072261;28;20045;-13
2023/01/18 09:15:00;;;;;;;29.95;15.85;;;5.20;85.80;;;;;;5072276;28;20036;-13
2023/01/18 09:17:27;;;;;;;37.25;18.63;;;5.30;85.90;;;;;;5072177;28;20027;-13
2023/01/18 09:19:53;;;;;;;33.08;17.92;;;5.40;85.90;;;;;;5072592;28;20021;-13
2023/01/18 09:22:20;;;;;;;37.00;18.10;;;5.40;85.90;;;;;;5072236;28;20464;-12
2023/01/18 09:24:46;;;;;;;38.42;18.15;;;5.50;85.90;;;;;;5072188;28;20020;-13
2023/01/18 09:27:12;;;;;;;39.65;18.92;;;5.50;85.70;;;;;;5071888;28;20102;-12
2023/01/18 09:29:39;;;;;;;34.97;17.60;;;5.50;85.60;;;;;;5072608;28;20043;-13
2023/01/18 09:32:07;;;;;;;37.38;18.67;;;5.60;85.60;;;;;;5072038;28;20043;-13
2023/01/18 09:34:36;;;;;;;29.60;15.85;;;5.60;85.60;;;;;;5072217;28;20133;-13
2023/01/18 09:37:02;;;;;;;34.83;17.10;;;5.60;85.50;;;;;;5071747;28;20035;-13
2023/01/18 09:39:28;;;;;;;36.40;18.02;;;5.60;85.60;;;;;;5072460;28;20028;-13
2023/01/18 09:41:57;;;;;;;30.52;15.75;;;5.60;85.70;;;;;;5072130;28;20484;-13
2023/01/18 09:44:27;;;;;;;32.72;17.42;;;5.60;85.30;;;;;;5072177;28;20392;-13
2023/01/18 09:47:04;;;;;;;34.05;17.10;;;5.70;85.30;;;;;;5071698;28;20028;-13
2023/01/18 09:49:55;;;;;;;35.97;17.83;;;5.70;85.60;;;;;;5071818;28;20044;-12
2023/01/18 09:52:48;;;;;;;31.85;15.90;;;5.80;85.70;;;;;;5072253;28;20028;-12
2023/01/18 09:55:39;;;;;;;32.35;17.85;;;5.80;85.60;;;;;;5072909;28;20146;-12
2023/01/18 09:58:20;;;;;;;31.95;16.75;;;5.80;85.40;;;;;;5075927;28;20047;-13
2023/01/18 10:00:48;;;;;;;31.10;16.33;;;5.80;85.40;;;;;;5075823;28;20115;-13
2023/01/18 10:03:23;;;;;;;34.15;18.20;;;5.70;85.40;;;;;;5075530;28;20488;-13
2023/01/18 10:06:07;;;;;;;33.90;17.98;;;5.70;85.50;;;;;;5075374;28;20078;-14
2023/01/18 10:08:48;;;;;;;33.33;17.55;;;5.80;85.60;;;;;;5075538;28;20036;-13
2023/01/18 10:11:19;;;;;;;32.58;17.05;;;5.70;85.20;;;;;;5075144;28;20066;-13
2023/01/18 10:14:21;;;;;;;35.38;18.13;;;5.70;85.20;;;;;;5075635;28;20063;-13
2023/01/18 10:19:17;;;;;;;39.63;18.67;;;5.70;85.30;;;;;;5068567;28;21004;-12
2023/01/18 10:21:51;;;;;;;32.55;17.70;;;5.70;85.30;;;;;;5069936;28;20060;-12
2023/01/18 10:26:00;;;;;;;36.50;19.05;;;5.60;85.10;;;;;;5089260;27;20387;-11
2023/01/18 10:29:14;;;;;;;38.92;17.95;;;5.50;85.10;;;;;;5090063;28;20119;-12
2023/01/18 10:32:06;;;;;;;35.50;17.77;;;5.50;85.20;;;;;;5087899;28;20055;-12
2023/01/18 10:34:35;;;;;;;32.25;15.80;;;5.50;85.40;;;;;;5089724;28;20028;-13
2023/01/18 10:37:26;;;;;;;38.38;20.52;;;5.60;85.30;;;;;;5090483;28;20028;-12
2023/01/18 10:39:56;;;;;;;45.33;25.55;;;5.60;85.50;;;;;;5090035;28;20021;-12
2023/01/18 10:42:29;;;;;;;45.97;23.70;;;5.60;85.60;;;;;;5089545;28;20028;-12
2023/01/18 10:44:56;;;;;;;41.45;20.85;;;5.70;85.60;;;;;;5089769;28;20055;-12
2023/01/18 10:47:22;;;;;;;40.25;20.92;;;5.70;85.30;;;;;;5089884;28;20025;-12
2023/01/18 10:49:49;;;;;;;39.92;20.20;;;5.70;85.40;;;;;;5089624;28;20028;-12
2023/01/18 10:52:17;;;;;;;44.10;21.58;;;5.60;85.40;;;;;;5089412;28;20341;-13
2023/01/18 10:54:54;;;;;;;44.17;21.50;;;5.60;85.10;;;;;;5089464;28;20161;-12
2023/01/18 10:57:48;;;;;;;48.15;22.40;;;5.50;85.30;;;;;;5089420;28;20016;-12
2023/01/18 11:00:25;;;;;;;42.85;21.90;;;5.40;85.30;;;;;;5089495;28;20119;-12
2023/01/18 11:02:53;;;;;;;47.35;23.55;;;5.30;85.40;;;;;;5089482;28;20486;-12
2023/01/18 11:05:32;;;;;;;45.05;21.70;;;5.30;85.70;;;;;;5089568;28;20119;-14
2023/01/18 11:08:20;;;;;;;43.53;21.90;;;5.30;85.70;;;;;;5089246;28;20457;-12
2023/01/18 11:11:12;;;;;;;44.53;20.13;;;5.30;85.90;;;;;;5089392;28;20040;-13
2023/01/18 11:13:38;;;;;;;39.67;19.25;;;5.30;86.00;;;;;;5089193;28;20503;-12
2023/01/18 11:16:07;;;;;;;39.38;19.33;;;5.30;86.10;;;;;;5089943;28;20036;-12
2023/01/18 11:18:33;;;;;;;46.55;21.13;;;5.40;86.10;;;;;;5089277;28;20111;-12
2023/01/18 11:20:59;;;;;;;42.35;18.92;;;5.40;85.90;;;;;;5088794;28;20036;-13
2023/01/18 11:23:34;;;;;;;39.42;19.05;;;5.40;85.70;;;;;;5093195;28;20052;-11
2023/01/18 11:26:06;;;;;;;44.22;20.83;;;5.50;85.80;;;;;;5109280;28;20547;-12
2023/01/18 11:29:05;;;;;;;45.08;21.50;;;5.50;85.80;;;;;;5109230;28;20098;-12
2023/01/18 11:31:46;;;;;;;43.63;20.30;;;5.60;85.70;;;;;;5090317;28;20031;-12
2023/01/18 11:34:28;;;;;;;39.63;19.67;;;5.70;85.80;;;;;;5109735;28;20371;-12
2023/01/18 11:36:55;;;;;;;39.70;18.52;;;5.70;85.80;;;;;;5095178;28;20024;-12
2023/01/18 11:39:21;;;;;;;36.67;19.10;;;5.80;85.50;;;;;;5095490;28;20438;-12
2023/01/18 11:41:48;;;;;;;36.88;18.77;;;5.80;85.10;;;;;;5095708;28;20480;-12
2023/01/18 11:44:32;;;;;;;31.83;17.00;;;5.70;84.80;;;;;;5095266;28;20028;-13
2023/01/18 11:47:02;;;;;;;39.67;18.65;;;5.70;85.10;;;;;;5095017;28;20031;-11
2023/01/18 11:49:38;;;;;;;41.33;19.90;;;5.80;85.10;;;;;;5095290;28;20028;-13
2023/01/18 11:52:27;;;;;;;42.25;19.80;;;5.80;85.10;;;;;;5077406;28;20133;-11
2023/01/18 11:55:00;;;;;;;41.55;19.38;;;5.90;85.10;;;;;;5094917;28;20059;-13
2023/01/18 11:57:29;;;;;;;44.30;20.50;;;6.10;84.80;;;;;;5095401;28;20021;-12
2023/01/18 11:59:55;;;;;;;41.08;20.20;;;6.20;85.10;;;;;;5094958;28;20043;-12
2023/01/18 12:02:24;;;;;;;40.78;19.55;;;6.30;84.90;;;;;;5095156;28;20024;-12
2023/01/18 12:05:15;;;;;;;42.03;19.95;;;6.40;84.80;;;;;;5094598;28;20491;-12
2023/01/18 12:07:50;;;;;;;40.00;18.90;;;6.50;83.60;;;;;;5095149;28;20095;-13
2023/01/18 12:10:32;;;;;;;44.72;20.45;;;6.60;84.40;;;;;;5095222;28;20100;-12
2023/01/18 12:13:28;;;;;;;42.50;19.77;;;6.60;83.50;;;;;;5094773;28;20034;-12
2023/01/18 12:16:12;;;;;;;39.33;18.95;;;6.60;83.10;;;;;;5094784;28;20027;-12
2023/01/18 12:18:57;;;;;;;39.20;20.67;;;6.60;83.60;;;;;;5095027;28;20185;-12
2023/01/18 12:21:40;;;;;;;38.75;18.67;;;6.60;83.80;;;;;;5094870;28;20028;-12
2023/01/18 12:24:57;;;;;;;38.72;19.50;;;6.70;83.60;;;;;;5094455;28;20079;-12
2023/01/18 12:28:10;;;;;;;37.83;18.23;;;6.70;82.80;;;;;;5094280;28;20033;-12
2023/01/18 12:30:59;;;;;;;34.10;17.77;;;6.50;82.90;;;;;;4976688;28;20118;-13
2023/01/18 12:33:33;;;;;;;42.85;18.58;;;6.40;83.20;;;;;;4992677;28;20105;-12
2023/01/18 12:36:19;;;;;;;41.33;19.95;;;6.50;83.30;;;;;;4992771;28;20030;-11
2023/01/18 12:38:53;;;;;;;39.47;18.02;;;6.50;83.30;;;;;;4992736;28;20325;-11
2023/01/18 12:41:21;;;;;;;40.58;19.08;;;6.50;83.40;;;;;;4992876;28;20073;-12
2023/01/18 12:44:10;;;;;;;40.50;19.48;;;6.60;83.70;;;;;;4992538;28;20037;-12
2023/01/18 12:46:56;;;;;;;38.47;19.02;;;6.60;82.80;;;;;;4991818;28;20038;-13
2023/01/18 12:49:26;;;;;;;41.28;19.55;;;6.60;82.90;;;;;;4992600;28;20035;-11
2023/01/18 12:51:58;;;;;;;34.40;18.17;;;6.60;82.40;;;;;;4992403;28;20034;-13
2023/01/18 12:54:37;;;;;;;39.58;19.55;;;6.70;82.70;;;;;;4992486;28;20045;-12
2023/01/18 12:57:03;;;;;;;36.28;18.33;;;6.70;82.50;;;;;;4992157;28;20155;-13
2023/01/18 12:59:50;;;;;;;39.53;18.92;;;6.70;82.50;;;;;;4976063;28;20038;-13
2023/01/18 13:02:15;;;;;;;43.47;19.60;;;6.70;82.50;;;;;;4992321;28;20484;-12
2023/01/18 13:04:52;;;;;;;42.00;19.38;;;6.80;82.30;;;;;;4992166;28;20080;-13
2023/01/18 13:07:27;;;;;;;41.33;19.00;;;6.80;81.90;;;;;;5069019;28;20040;-13
2023/01/18 13:09:54;;;;;;;35.40;18.15;;;6.80;82.00;;;;;;5093964;28;20020;-13
2023/01/18 13:12:20;;;;;;;37.63;17.33;;;6.80;82.00;;;;;;5093796;28;20054;-13
2023/01/18 13:15:06;;;;;;;39.65;19.13;;;6.70;82.30;;;;;;5093585;28;20035;-12
2023/01/18 13:17:37;;;;;;;39.92;19.08;;;6.80;82.20;;;;;;5093399;28;20028;-12
2023/01/18 13:20:11;;;;;;;37.75;19.15;;;6.80;82.10;;;;;;5093794;28;20028;-12
2023/01/18 13:22:43;;;;;;;36.30;17.70;;;6.90;82.00;;;;;;5093772;28;20088;-13
2023/01/18 13:25:32;;;;;;;41.67;18.63;;;6.90;81.70;;;;;;5092934;28;20052;-12
2023/01/18 13:28:19;;;;;;;40.13;18.20;;;6.90;81.40;;;;;;5093748;28;20452;-13
2023/01/18 13:30:55;;;;;;;36.88;17.67;;;6.90;81.40;;;;;;5076856;28;20036;-14
2023/01/18 13:33:24;;;;;;;36.95;18.40;;;6.80;81.50;;;;;;5093509;28;20031;-14
2023/01/18 13:35:54;;;;;;;41.65;18.60;;;6.90;81.60;;;;;;5093379;28;20453;-13
2023/01/18 13:38:24;;;;;;;43.13;20.33;;;6.90;81.40;;;;;;5093170;28;20024;-13